sensor_id;sensor_type;location;lat;lon;timestamp;temperature;humidity
23311;DHT22;11828;51.508;18.118;2023-09-19T00:00:40;35.70;35.00
23311;DHT22;11828;51.508;18.118;2023-09-19T00:03:27;35.70;34.90
23311;DHT22;11828;51.508;18.118;2023-09-19T00:05:54;35.70;34.80
23311;DHT22;11828;51.508;18.118;2023-09-19T00:08:21;35.60;34.80
23311;DHT22;11828;51.508;18.118;2023-09-19T00:10:50;35.60;35.00
23311;DHT22;11828;51.508;18.118;2023-09-19T00:13:16;35.60;34.90
23311;DHT22;11828;51.508;18.118;2023-09-19T00:15:46;35.50;35.00
23311;DHT22;11828;51.508;18.118;2023-09-19T00:18:18;35.50;35.10
23311;DHT22;11828;51.508;18.118;2023-09-19T00:20:46;35.50;35.10
23311;DHT22;11828;51.508;18.118;2023-09-19T00:23:14;35.50;35.20
23311;DHT22;11828;51.508;18.118;2023-09-19T00:25:40;35.50;35.30
23311;DHT22;11828;51.508;18.118;2023-09-19T00:28:07;35.40;35.30
23311;DHT22;11828;51.508;18.118;2023-09-19T00:30:34;35.50;35.40
23311;DHT22;11828;51.508;18.118;2023-09-19T00:33:01;35.50;35.30
23311;DHT22;11828;51.508;18.118;2023-09-19T00:35:31;35.50;35.20
23311;DHT22;11828;51.508;18.118;2023-09-19T00:37:57;35.60;35.20
23311;DHT22;11828;51.508;18.118;2023-09-19T00:40:23;35.70;35.10
23311;DHT22;11828;51.508;18.118;2023-09-19T00:42:49;35.80;35.00
23311;DHT22;11828;51.508;18.118;2023-09-19T00:45:17;35.80;34.80
23311;DHT22;11828;51.508;18.118;2023-09-19T00:47:47;35.80;34.80
23311;DHT22;11828;51.508;18.118;2023-09-19T00:50:24;35.70;34.80
23311;DHT22;11828;51.508;18.118;2023-09-19T00:52:54;35.70;34.80
23311;DHT22;11828;51.508;18.118;2023-09-19T00:55:24;35.50;35.10
23311;DHT22;11828;51.508;18.118;2023-09-19T00:57:51;35.50;35.20
23311;DHT22;11828;51.508;18.118;2023-09-19T01:00:18;35.50;35.30
23311;DHT22;11828;51.508;18.118;2023-09-19T01:02:47;35.40;35.30
23311;DHT22;11828;51.508;18.118;2023-09-19T01:05:13;35.40;35.40
23311;DHT22;11828;51.508;18.118;2023-09-19T01:07:40;35.40;35.40
23311;DHT22;11828;51.508;18.118;2023-09-19T01:10:08;35.50;35.40
23311;DHT22;11828;51.508;18.118;2023-09-19T01:26:41;35.60;35.30
23311;DHT22;11828;51.508;18.118;2023-09-19T01:29:39;35.70;35.30
23311;DHT22;11828;51.508;18.118;2023-09-19T01:32:06;35.70;35.10
23311;DHT22;11828;51.508;18.118;2023-09-19T01:34:48;35.80;35.00
23311;DHT22;11828;51.508;18.118;2023-09-19T01:37:17;35.70;35.00
23311;DHT22;11828;51.508;18.118;2023-09-19T01:39:57;35.70;35.00
23311;DHT22;11828;51.508;18.118;2023-09-19T01:42:44;35.70;35.10
23311;DHT22;11828;51.508;18.118;2023-09-19T01:47:55;35.90;35.40
23311;DHT22;11828;51.508;18.118;2023-09-19T01:51:01;35.90;35.50
23311;DHT22;11828;51.508;18.118;2023-09-19T01:56:22;35.90;35.20
23311;DHT22;11828;51.508;18.118;2023-09-19T01:59:16;36.00;35.20
23311;DHT22;11828;51.508;18.118;2023-09-19T02:01:45;36.00;35.10
23311;DHT22;11828;51.508;18.118;2023-09-19T02:04:12;36.10;35.10
23311;DHT22;11828;51.508;18.118;2023-09-19T02:06:41;36.10;35.10
23311;DHT22;11828;51.508;18.118;2023-09-19T02:09:08;36.10;35.20
23311;DHT22;11828;51.508;18.118;2023-09-19T02:11:35;36.10;35.10
23311;DHT22;11828;51.508;18.118;2023-09-19T02:14:02;36.10;35.00
23311;DHT22;11828;51.508;18.118;2023-09-19T02:16:29;36.20;35.10
23311;DHT22;11828;51.508;18.118;2023-09-19T02:18:55;36.10;35.10
23311;DHT22;11828;51.508;18.118;2023-09-19T02:21:21;36.10;35.10
23311;DHT22;11828;51.508;18.118;2023-09-19T02:23:47;36.00;35.20
23311;DHT22;11828;51.508;18.118;2023-09-19T02:26:14;35.90;35.30
23311;DHT22;11828;51.508;18.118;2023-09-19T02:28:40;35.90;35.30
23311;DHT22;11828;51.508;18.118;2023-09-19T02:31:06;35.80;35.40
23311;DHT22;11828;51.508;18.118;2023-09-19T02:33:32;35.70;35.50
23311;DHT22;11828;51.508;18.118;2023-09-19T02:35:58;35.70;35.60
23311;DHT22;11828;51.508;18.118;2023-09-19T02:38:25;35.70;35.80
23311;DHT22;11828;51.508;18.118;2023-09-19T02:40:52;35.70;35.90
23311;DHT22;11828;51.508;18.118;2023-09-19T02:43:19;35.70;36.00
23311;DHT22;11828;51.508;18.118;2023-09-19T02:45:45;35.70;36.00
23311;DHT22;11828;51.508;18.118;2023-09-19T02:48:21;35.70;36.00
23311;DHT22;11828;51.508;18.118;2023-09-19T02:50:49;35.70;36.10
23311;DHT22;11828;51.508;18.118;2023-09-19T02:53:16;35.60;36.10
23311;DHT22;11828;51.508;18.118;2023-09-19T02:55:42;35.60;36.20
23311;DHT22;11828;51.508;18.118;2023-09-19T02:58:09;35.50;36.20
23311;DHT22;11828;51.508;18.118;2023-09-19T03:00:37;35.50;36.70
23311;DHT22;11828;51.508;18.118;2023-09-19T03:03:04;35.50;37.20
23311;DHT22;11828;51.508;18.118;2023-09-19T03:05:31;35.30;37.60
23311;DHT22;11828;51.508;18.118;2023-09-19T03:07:58;35.30;38.00
23311;DHT22;11828;51.508;18.118;2023-09-19T03:10:27;35.30;38.20
23311;DHT22;11828;51.508;18.118;2023-09-19T03:12:54;35.20;38.40
23311;DHT22;11828;51.508;18.118;2023-09-19T03:15:20;35.10;38.50
23311;DHT22;11828;51.508;18.118;2023-09-19T03:17:48;35.00;38.80
23311;DHT22;11828;51.508;18.118;2023-09-19T03:20:15;35.00;38.90
23311;DHT22;11828;51.508;18.118;2023-09-19T03:22:45;35.00;39.20
23311;DHT22;11828;51.508;18.118;2023-09-19T03:25:11;34.90;39.00
23311;DHT22;11828;51.508;18.118;2023-09-19T03:27:39;34.90;39.30
23311;DHT22;11828;51.508;18.118;2023-09-19T03:30:07;34.90;39.40
23311;DHT22;11828;51.508;18.118;2023-09-19T03:32:48;35.00;39.40
23311;DHT22;11828;51.508;18.118;2023-09-19T03:35:16;34.90;39.60
23311;DHT22;11828;51.508;18.118;2023-09-19T03:37:43;35.00;39.40
23311;DHT22;11828;51.508;18.118;2023-09-19T03:40:10;35.00;39.40
23311;DHT22;11828;51.508;18.118;2023-09-19T03:42:40;34.90;39.20
23311;DHT22;11828;51.508;18.118;2023-09-19T03:45:08;34.90;39.40
23311;DHT22;11828;51.508;18.118;2023-09-19T03:47:38;34.90;39.70
23311;DHT22;11828;51.508;18.118;2023-09-19T03:50:06;34.90;39.60
23311;DHT22;11828;51.508;18.118;2023-09-19T03:52:34;34.80;39.60
23311;DHT22;11828;51.508;18.118;2023-09-19T03:55:00;34.90;39.90
23311;DHT22;11828;51.508;18.118;2023-09-19T03:57:28;34.90;39.70
23311;DHT22;11828;51.508;18.118;2023-09-19T03:59:54;34.90;39.70
23311;DHT22;11828;51.508;18.118;2023-09-19T04:02:22;34.90;39.80
23311;DHT22;11828;51.508;18.118;2023-09-19T04:04:49;34.90;39.80
23311;DHT22;11828;51.508;18.118;2023-09-19T04:07:16;34.70;39.60
23311;DHT22;11828;51.508;18.118;2023-09-19T04:09:42;34.70;40.00
23311;DHT22;11828;51.508;18.118;2023-09-19T04:12:09;34.60;40.10
23311;DHT22;11828;51.508;18.118;2023-09-19T04:14:35;34.60;40.20
23311;DHT22;11828;51.508;18.118;2023-09-19T04:17:01;34.50;40.10
23311;DHT22;11828;51.508;18.118;2023-09-19T04:19:28;34.50;40.30
23311;DHT22;11828;51.508;18.118;2023-09-19T04:21:54;34.50;40.60
23311;DHT22;11828;51.508;18.118;2023-09-19T04:24:20;34.40;40.40
23311;DHT22;11828;51.508;18.118;2023-09-19T04:26:46;34.40;40.60
23311;DHT22;11828;51.508;18.118;2023-09-19T04:29:12;34.40;40.90
23311;DHT22;11828;51.508;18.118;2023-09-19T04:31:40;34.40;41.20
23311;DHT22;11828;51.508;18.118;2023-09-19T04:34:09;34.40;41.10
23311;DHT22;11828;51.508;18.118;2023-09-19T04:36:36;34.40;41.20
23311;DHT22;11828;51.508;18.118;2023-09-19T04:39:05;34.20;41.20
23311;DHT22;11828;51.508;18.118;2023-09-19T04:41:31;34.30;41.60
23311;DHT22;11828;51.508;18.118;2023-09-19T04:43:57;34.20;41.50
23311;DHT22;11828;51.508;18.118;2023-09-19T04:46:24;34.30;42.20
23311;DHT22;11828;51.508;18.118;2023-09-19T04:48:50;34.20;43.20
23311;DHT22;11828;51.508;18.118;2023-09-19T04:51:16;34.20;42.80
23311;DHT22;11828;51.508;18.118;2023-09-19T04:53:44;34.30;43.10
23311;DHT22;11828;51.508;18.118;2023-09-19T04:56:10;34.20;43.40
23311;DHT22;11828;51.508;18.118;2023-09-19T04:58:36;34.20;43.20
23311;DHT22;11828;51.508;18.118;2023-09-19T05:01:03;34.20;43.40
23311;DHT22;11828;51.508;18.118;2023-09-19T05:03:29;34.20;43.40
23311;DHT22;11828;51.508;18.118;2023-09-19T05:05:55;34.20;43.60
23311;DHT22;11828;51.508;18.118;2023-09-19T05:08:21;34.20;43.60
23311;DHT22;11828;51.508;18.118;2023-09-19T05:10:48;34.20;43.70
23311;DHT22;11828;51.508;18.118;2023-09-19T05:13:14;34.20;44.20
23311;DHT22;11828;51.508;18.118;2023-09-19T05:15:41;34.20;44.10
23311;DHT22;11828;51.508;18.118;2023-09-19T05:18:07;34.20;44.20
23311;DHT22;11828;51.508;18.118;2023-09-19T05:20:34;34.20;43.80
23311;DHT22;11828;51.508;18.118;2023-09-19T05:23:02;34.20;43.90
23311;DHT22;11828;51.508;18.118;2023-09-19T05:25:32;34.10;43.80
23311;DHT22;11828;51.508;18.118;2023-09-19T05:27:59;34.10;44.00
23311;DHT22;11828;51.508;18.118;2023-09-19T05:30:26;33.90;44.10
23311;DHT22;11828;51.508;18.118;2023-09-19T05:32:55;33.90;43.90
23311;DHT22;11828;51.508;18.118;2023-09-19T05:35:23;33.80;44.10
23311;DHT22;11828;51.508;18.118;2023-09-19T05:37:54;33.80;44.00
23311;DHT22;11828;51.508;18.118;2023-09-19T05:40:21;33.70;43.80
23311;DHT22;11828;51.508;18.118;2023-09-19T05:42:47;33.70;43.80
23311;DHT22;11828;51.508;18.118;2023-09-19T05:45:14;33.70;44.00
23311;DHT22;11828;51.508;18.118;2023-09-19T05:47:40;33.60;43.70
23311;DHT22;11828;51.508;18.118;2023-09-19T05:50:11;33.60;43.80
23311;DHT22;11828;51.508;18.118;2023-09-19T05:52:38;33.60;43.70
23311;DHT22;11828;51.508;18.118;2023-09-19T05:55:07;33.60;43.70
23311;DHT22;11828;51.508;18.118;2023-09-19T05:57:34;33.60;43.50
23311;DHT22;11828;51.508;18.118;2023-09-19T06:00:00;33.60;43.40
23311;DHT22;11828;51.508;18.118;2023-09-19T06:02:27;33.60;43.40
23311;DHT22;11828;51.508;18.118;2023-09-19T06:04:55;33.70;43.30
23311;DHT22;11828;51.508;18.118;2023-09-19T06:07:22;33.80;43.30
23311;DHT22;11828;51.508;18.118;2023-09-19T06:09:52;33.80;43.20
23311;DHT22;11828;51.508;18.118;2023-09-19T06:12:21;33.90;43.00
23311;DHT22;11828;51.508;18.118;2023-09-19T06:14:47;33.90;42.80
23311;DHT22;11828;51.508;18.118;2023-09-19T06:17:15;33.90;42.80
23311;DHT22;11828;51.508;18.118;2023-09-19T06:19:41;33.80;42.80
23311;DHT22;11828;51.508;18.118;2023-09-19T06:22:15;33.90;42.80
23311;DHT22;11828;51.508;18.118;2023-09-19T06:24:44;33.90;42.80
23311;DHT22;11828;51.508;18.118;2023-09-19T06:27:13;34.00;42.80
23311;DHT22;11828;51.508;18.118;2023-09-19T06:29:39;34.10;42.80
23311;DHT22;11828;51.508;18.118;2023-09-19T06:32:08;34.20;42.60
23311;DHT22;11828;51.508;18.118;2023-09-19T06:34:36;34.20;42.50
23311;DHT22;11828;51.508;18.118;2023-09-19T06:37:04;34.20;42.30
23311;DHT22;11828;51.508;18.118;2023-09-19T06:39:31;34.10;42.20
23311;DHT22;11828;51.508;18.118;2023-09-19T06:41:58;34.20;42.30
23311;DHT22;11828;51.508;18.118;2023-09-19T06:44:27;34.20;42.10
23311;DHT22;11828;51.508;18.118;2023-09-19T06:46:55;34.20;42.00
23311;DHT22;11828;51.508;18.118;2023-09-19T06:49:21;34.10;42.00
23311;DHT22;11828;51.508;18.118;2023-09-19T06:51:47;34.20;42.00
23311;DHT22;11828;51.508;18.118;2023-09-19T06:54:15;34.20;42.00
23311;DHT22;11828;51.508;18.118;2023-09-19T06:56:41;34.30;41.80
23311;DHT22;11828;51.508;18.118;2023-09-19T06:59:07;34.30;41.60
23311;DHT22;11828;51.508;18.118;2023-09-19T07:01:34;34.30;41.60
23311;DHT22;11828;51.508;18.118;2023-09-19T07:04:03;34.40;41.60
23311;DHT22;11828;51.508;18.118;2023-09-19T07:06:30;34.30;41.40
23311;DHT22;11828;51.508;18.118;2023-09-19T07:08:56;34.40;41.60
23311;DHT22;11828;51.508;18.118;2023-09-19T07:11:22;34.40;41.50
23311;DHT22;11828;51.508;18.118;2023-09-19T07:13:48;34.60;41.50
23311;DHT22;11828;51.508;18.118;2023-09-19T07:16:15;34.60;41.10
23311;DHT22;11828;51.508;18.118;2023-09-19T07:18:53;34.70;41.00
23311;DHT22;11828;51.508;18.118;2023-09-19T07:21:21;34.70;41.20
23311;DHT22;11828;51.508;18.118;2023-09-19T07:23:47;34.70;41.00
23311;DHT22;11828;51.508;18.118;2023-09-19T07:26:13;34.80;41.00
23311;DHT22;11828;51.508;18.118;2023-09-19T07:28:39;34.80;40.90
23311;DHT22;11828;51.508;18.118;2023-09-19T07:31:05;34.90;40.80
23311;DHT22;11828;51.508;18.118;2023-09-19T07:33:34;35.10;40.90
23311;DHT22;11828;51.508;18.118;2023-09-19T07:36:02;35.20;40.80
23311;DHT22;11828;51.508;18.118;2023-09-19T07:38:28;35.50;40.80
23311;DHT22;11828;51.508;18.118;2023-09-19T07:41:00;35.80;40.10
23311;DHT22;11828;51.508;18.118;2023-09-19T07:43:28;36.00;39.40
23311;DHT22;11828;51.508;18.118;2023-09-19T07:45:54;36.00;39.10
23311;DHT22;11828;51.508;18.118;2023-09-19T07:48:20;36.00;39.00
23311;DHT22;11828;51.508;18.118;2023-09-19T07:50:46;36.00;39.00
23311;DHT22;11828;51.508;18.118;2023-09-19T07:53:13;36.00;39.00
23311;DHT22;11828;51.508;18.118;2023-09-19T07:55:41;36.00;38.90
23311;DHT22;11828;51.508;18.118;2023-09-19T07:58:07;35.90;38.70
23311;DHT22;11828;51.508;18.118;2023-09-19T08:00:34;35.90;38.80
23311;DHT22;11828;51.508;18.118;2023-09-19T08:03:00;35.90;38.80
23311;DHT22;11828;51.508;18.118;2023-09-19T08:05:28;35.90;38.60
23311;DHT22;11828;51.508;18.118;2023-09-19T08:07:54;35.80;38.50
23311;DHT22;11828;51.508;18.118;2023-09-19T08:10:22;35.70;38.60
23311;DHT22;11828;51.508;18.118;2023-09-19T08:12:48;35.80;39.00
23311;DHT22;11828;51.508;18.118;2023-09-19T08:15:18;35.90;39.10
23311;DHT22;11828;51.508;18.118;2023-09-19T08:17:46;36.20;39.00
23311;DHT22;11828;51.508;18.118;2023-09-19T08:20:13;36.30;38.30
23311;DHT22;11828;51.508;18.118;2023-09-19T08:22:49;36.30;38.10
23311;DHT22;11828;51.508;18.118;2023-09-19T08:25:23;36.50;37.70
23311;DHT22;11828;51.508;18.118;2023-09-19T08:27:51;36.50;37.40
23311;DHT22;11828;51.508;18.118;2023-09-19T08:30:19;36.40;37.50
23311;DHT22;11828;51.508;18.118;2023-09-19T08:32:59;36.50;37.60
23311;DHT22;11828;51.508;18.118;2023-09-19T08:35:26;36.50;37.70
23311;DHT22;11828;51.508;18.118;2023-09-19T08:37:53;36.40;37.30
23311;DHT22;11828;51.508;18.118;2023-09-19T08:40:21;36.40;37.20
23311;DHT22;11828;51.508;18.118;2023-09-19T08:42:53;36.40;37.40
23311;DHT22;11828;51.508;18.118;2023-09-19T08:45:21;36.40;37.40
23311;DHT22;11828;51.508;18.118;2023-09-19T08:48:22;36.40;37.20
23311;DHT22;11828;51.508;18.118;2023-09-19T08:51:03;36.40;37.00
23311;DHT22;11828;51.508;18.118;2023-09-19T08:53:47;36.50;37.30
23311;DHT22;11828;51.508;18.118;2023-09-19T08:56:26;36.60;37.00
23311;DHT22;11828;51.508;18.118;2023-09-19T08:59:02;36.60;37.00
23311;DHT22;11828;51.508;18.118;2023-09-19T09:01:31;36.60;36.50
23311;DHT22;11828;51.508;18.118;2023-09-19T09:03:58;36.60;36.40
23311;DHT22;11828;51.508;18.118;2023-09-19T09:06:25;36.60;36.40
23311;DHT22;11828;51.508;18.118;2023-09-19T09:08:53;36.50;36.20
23311;DHT22;11828;51.508;18.118;2023-09-19T09:11:20;36.40;36.40
23311;DHT22;11828;51.508;18.118;2023-09-19T09:13:48;36.40;36.60
23311;DHT22;11828;51.508;18.118;2023-09-19T09:16:14;36.40;36.40
23311;DHT22;11828;51.508;18.118;2023-09-19T09:18:45;36.30;36.50
23311;DHT22;11828;51.508;18.118;2023-09-19T09:21:12;36.30;36.80
23311;DHT22;11828;51.508;18.118;2023-09-19T09:23:40;36.30;36.70
23311;DHT22;11828;51.508;18.118;2023-09-19T09:26:06;36.30;36.80
23311;DHT22;11828;51.508;18.118;2023-09-19T09:28:34;36.20;36.90
23311;DHT22;11828;51.508;18.118;2023-09-19T09:31:02;36.10;36.80
23311;DHT22;11828;51.508;18.118;2023-09-19T09:33:34;36.10;37.00
23311;DHT22;11828;51.508;18.118;2023-09-19T09:36:02;36.00;37.00
23311;DHT22;11828;51.508;18.118;2023-09-19T09:38:42;36.00;37.00
23311;DHT22;11828;51.508;18.118;2023-09-19T09:41:10;36.00;36.90
23311;DHT22;11828;51.508;18.118;2023-09-19T09:43:41;35.80;37.00
23311;DHT22;11828;51.508;18.118;2023-09-19T09:46:17;35.80;37.00
23311;DHT22;11828;51.508;18.118;2023-09-19T09:49:06;35.80;37.30
23311;DHT22;11828;51.508;18.118;2023-09-19T09:52:11;35.90;37.50
23311;DHT22;11828;51.508;18.118;2023-09-19T09:55:03;35.90;37.20
23311;DHT22;11828;51.508;18.118;2023-09-19T09:57:34;36.00;37.10
23311;DHT22;11828;51.508;18.118;2023-09-19T10:00:01;36.00;37.00
23311;DHT22;11828;51.508;18.118;2023-09-19T10:02:39;36.00;37.30
23311;DHT22;11828;51.508;18.118;2023-09-19T10:05:14;36.00;36.70
23311;DHT22;11828;51.508;18.118;2023-09-19T10:07:55;35.90;36.30
23311;DHT22;11828;51.508;18.118;2023-09-19T10:10:32;35.90;35.90
23311;DHT22;11828;51.508;18.118;2023-09-19T10:13:09;35.80;35.80
23311;DHT22;11828;51.508;18.118;2023-09-19T10:15:48;35.70;35.80
23311;DHT22;11828;51.508;18.118;2023-09-19T10:18:20;35.60;36.00
23311;DHT22;11828;51.508;18.118;2023-09-19T10:20:48;35.60;35.90
23311;DHT22;11828;51.508;18.118;2023-09-19T10:23:19;35.60;36.10
23311;DHT22;11828;51.508;18.118;2023-09-19T10:25:49;35.70;36.10
23311;DHT22;11828;51.508;18.118;2023-09-19T10:28:17;35.70;36.20
23311;DHT22;11828;51.508;18.118;2023-09-19T10:30:49;35.80;36.30
23311;DHT22;11828;51.508;18.118;2023-09-19T10:33:18;35.70;36.20
23311;DHT22;11828;51.508;18.118;2023-09-19T10:35:49;35.80;37.00
23311;DHT22;11828;51.508;18.118;2023-09-19T10:38:24;36.00;36.30
23311;DHT22;11828;51.508;18.118;2023-09-19T10:40:54;35.90;35.90
23311;DHT22;11828;51.508;18.118;2023-09-19T10:43:26;36.00;35.80
23311;DHT22;11828;51.508;18.118;2023-09-19T10:46:01;36.10;35.70
23311;DHT22;11828;51.508;18.118;2023-09-19T10:48:31;36.10;35.70
23311;DHT22;11828;51.508;18.118;2023-09-19T10:51:11;36.30;35.80
23311;DHT22;11828;51.508;18.118;2023-09-19T10:53:47;36.40;35.60
23311;DHT22;11828;51.508;18.118;2023-09-19T10:56:36;36.40;35.10
23311;DHT22;11828;51.508;18.118;2023-09-19T10:59:15;36.30;34.90
23311;DHT22;11828;51.508;18.118;2023-09-19T11:01:47;36.30;35.00
23311;DHT22;11828;51.508;18.118;2023-09-19T11:04:32;36.30;35.10
23311;DHT22;11828;51.508;18.118;2023-09-19T11:07:06;36.20;35.10
23311;DHT22;11828;51.508;18.118;2023-09-19T11:09:52;36.30;34.80
23311;DHT22;11828;51.508;18.118;2023-09-19T11:14:58;36.30;35.20
23311;DHT22;11828;51.508;18.118;2023-09-19T11:17:34;36.50;34.80
23311;DHT22;11828;51.508;18.118;2023-09-19T11:30:39;37.80;31.50
23311;DHT22;11828;51.508;18.118;2023-09-19T11:43:52;37.30;31.20
23311;DHT22;11828;51.508;18.118;2023-09-19T11:46:52;37.20;31.10
23311;DHT22;11828;51.508;18.118;2023-09-19T11:49:26;37.20;31.30
23311;DHT22;11828;51.508;18.118;2023-09-19T11:51:58;37.30;31.50
23311;DHT22;11828;51.508;18.118;2023-09-19T11:54:31;37.20;31.30
23311;DHT22;11828;51.508;18.118;2023-09-19T11:56:59;37.00;31.20
23311;DHT22;11828;51.508;18.118;2023-09-19T11:59:27;37.00;31.10
23311;DHT22;11828;51.508;18.118;2023-09-19T12:01:57;37.10;31.40
23311;DHT22;11828;51.508;18.118;2023-09-19T12:04:38;37.00;31.30
23311;DHT22;11828;51.508;18.118;2023-09-19T12:07:12;37.10;31.50
23311;DHT22;11828;51.508;18.118;2023-09-19T12:09:46;37.20;31.50
23311;DHT22;11828;51.508;18.118;2023-09-19T12:12:25;37.30;31.20
23311;DHT22;11828;51.508;18.118;2023-09-19T12:15:01;37.40;31.50
23311;DHT22;11828;51.508;18.118;2023-09-19T12:17:39;37.30;30.50
23311;DHT22;11828;51.508;18.118;2023-09-19T12:20:10;37.20;30.60
23311;DHT22;11828;51.508;18.118;2023-09-19T12:22:43;37.10;30.60
23311;DHT22;11828;51.508;18.118;2023-09-19T12:25:10;37.10;30.30
23311;DHT22;11828;51.508;18.118;2023-09-19T12:27:44;37.10;30.40
23311;DHT22;11828;51.508;18.118;2023-09-19T12:30:16;37.10;30.60
23311;DHT22;11828;51.508;18.118;2023-09-19T12:32:45;37.20;30.60
23311;DHT22;11828;51.508;18.118;2023-09-19T12:35:30;37.20;30.60
23311;DHT22;11828;51.508;18.118;2023-09-19T12:37:57;37.20;30.20
23311;DHT22;11828;51.508;18.118;2023-09-19T12:40:24;37.20;30.40
23311;DHT22;11828;51.508;18.118;2023-09-19T12:42:55;37.10;30.40
23311;DHT22;11828;51.508;18.118;2023-09-19T12:45:21;37.10;30.50
23311;DHT22;11828;51.508;18.118;2023-09-19T12:48:23;37.00;30.40
23311;DHT22;11828;51.508;18.118;2023-09-19T12:51:01;36.90;30.30
23311;DHT22;11828;51.508;18.118;2023-09-19T12:53:41;36.90;30.50
23311;DHT22;11828;51.508;18.118;2023-09-19T12:56:17;36.80;30.70
23311;DHT22;11828;51.508;18.118;2023-09-19T12:58:59;36.80;30.80
23311;DHT22;11828;51.508;18.118;2023-09-19T13:01:29;36.90;31.10
23311;DHT22;11828;51.508;18.118;2023-09-19T13:04:18;37.00;30.90
23311;DHT22;11828;51.508;18.118;2023-09-19T13:06:50;37.20;30.70
23311;DHT22;11828;51.508;18.118;2023-09-19T13:09:17;37.40;30.70
23311;DHT22;11828;51.508;18.118;2023-09-19T13:11:47;37.50;30.50
23311;DHT22;11828;51.508;18.118;2023-09-19T13:14:23;37.70;30.50
23311;DHT22;11828;51.508;18.118;2023-09-19T13:17:04;37.80;30.20
23311;DHT22;11828;51.508;18.118;2023-09-19T13:25:08;38.50;29.10
23311;DHT22;11828;51.508;18.118;2023-09-19T13:27:47;38.60;29.40
23311;DHT22;11828;51.508;18.118;2023-09-19T13:30:18;38.50;29.40
23311;DHT22;11828;51.508;18.118;2023-09-19T13:32:44;38.40;29.30
23311;DHT22;11828;51.508;18.118;2023-09-19T13:35:14;38.20;29.30
23311;DHT22;11828;51.508;18.118;2023-09-19T13:37:41;37.90;29.40
23311;DHT22;11828;51.508;18.118;2023-09-19T13:40:09;37.70;29.50
23311;DHT22;11828;51.508;18.118;2023-09-19T13:42:37;37.70;29.50
23311;DHT22;11828;51.508;18.118;2023-09-19T13:45:04;37.50;29.30
23311;DHT22;11828;51.508;18.118;2023-09-19T13:47:31;37.40;29.40
23311;DHT22;11828;51.508;18.118;2023-09-19T13:50:02;37.20;29.50
23311;DHT22;11828;51.508;18.118;2023-09-19T13:52:30;37.10;29.40
23311;DHT22;11828;51.508;18.118;2023-09-19T13:54:57;37.10;29.10
23311;DHT22;11828;51.508;18.118;2023-09-19T13:57:25;37.10;29.00
23311;DHT22;11828;51.508;18.118;2023-09-19T13:59:52;37.20;29.00
23311;DHT22;11828;51.508;18.118;2023-09-19T14:02:22;37.10;28.60
23311;DHT22;11828;51.508;18.118;2023-09-19T14:04:49;37.10;28.60
23311;DHT22;11828;51.508;18.118;2023-09-19T14:07:15;37.10;28.40
23311;DHT22;11828;51.508;18.118;2023-09-19T14:09:44;37.10;28.30
23311;DHT22;11828;51.508;18.118;2023-09-19T14:12:11;37.10;28.30
23311;DHT22;11828;51.508;18.118;2023-09-19T14:14:37;37.10;28.30
23311;DHT22;11828;51.508;18.118;2023-09-19T14:17:04;37.20;28.00
23311;DHT22;11828;51.508;18.118;2023-09-19T14:19:30;37.10;28.10
23311;DHT22;11828;51.508;18.118;2023-09-19T14:21:57;37.00;28.20
23311;DHT22;11828;51.508;18.118;2023-09-19T14:24:25;37.10;27.80
23311;DHT22;11828;51.508;18.118;2023-09-19T14:26:51;37.00;27.80
23311;DHT22;11828;51.508;18.118;2023-09-19T14:29:17;37.00;27.80
23311;DHT22;11828;51.508;18.118;2023-09-19T14:31:43;37.10;27.80
23311;DHT22;11828;51.508;18.118;2023-09-19T14:34:09;37.10;27.70
23311;DHT22;11828;51.508;18.118;2023-09-19T14:36:36;37.10;27.70
23311;DHT22;11828;51.508;18.118;2023-09-19T14:39:04;36.90;27.80
23311;DHT22;11828;51.508;18.118;2023-09-19T14:41:31;36.90;27.80
23311;DHT22;11828;51.508;18.118;2023-09-19T14:43:57;37.00;27.80
23311;DHT22;11828;51.508;18.118;2023-09-19T14:46:23;37.00;27.90
23311;DHT22;11828;51.508;18.118;2023-09-19T14:48:53;37.10;28.00
23311;DHT22;11828;51.508;18.118;2023-09-19T14:51:19;37.10;27.90
23311;DHT22;11828;51.508;18.118;2023-09-19T14:53:46;37.00;27.90
23311;DHT22;11828;51.508;18.118;2023-09-19T14:56:12;37.10;28.00
23311;DHT22;11828;51.508;18.118;2023-09-19T14:58:41;37.10;28.00
23311;DHT22;11828;51.508;18.118;2023-09-19T15:01:09;37.10;28.00
23311;DHT22;11828;51.508;18.118;2023-09-19T15:03:37;37.10;28.00
23311;DHT22;11828;51.508;18.118;2023-09-19T15:06:09;37.20;28.10
23311;DHT22;11828;51.508;18.118;2023-09-19T15:08:40;37.20;28.20
23311;DHT22;11828;51.508;18.118;2023-09-19T15:11:11;37.30;27.90
23311;DHT22;11828;51.508;18.118;2023-09-19T15:13:39;37.50;28.10
23311;DHT22;11828;51.508;18.118;2023-09-19T15:16:06;37.50;28.00
23311;DHT22;11828;51.508;18.118;2023-09-19T15:18:37;37.50;27.90
23311;DHT22;11828;51.508;18.118;2023-09-19T15:21:07;37.50;27.90
23311;DHT22;11828;51.508;18.118;2023-09-19T15:23:35;37.40;27.50
23311;DHT22;11828;51.508;18.118;2023-09-19T15:26:03;37.20;27.00
23311;DHT22;11828;51.508;18.118;2023-09-19T15:28:30;37.10;27.30
23311;DHT22;11828;51.508;18.118;2023-09-19T15:30:59;37.10;27.40
23311;DHT22;11828;51.508;18.118;2023-09-19T15:33:33;37.00;27.40
23311;DHT22;11828;51.508;18.118;2023-09-19T15:36:10;36.90;27.30
23311;DHT22;11828;51.508;18.118;2023-09-19T15:39:00;36.90;27.30
23311;DHT22;11828;51.508;18.118;2023-09-19T15:41:32;37.00;27.50
23311;DHT22;11828;51.508;18.118;2023-09-19T15:44:01;37.00;27.30
23311;DHT22;11828;51.508;18.118;2023-09-19T15:46:28;36.90;27.30
23311;DHT22;11828;51.508;18.118;2023-09-19T15:49:00;36.90;27.40
23311;DHT22;11828;51.508;18.118;2023-09-19T15:51:27;36.80;27.50
23311;DHT22;11828;51.508;18.118;2023-09-19T15:53:55;36.80;27.60
23311;DHT22;11828;51.508;18.118;2023-09-19T15:56:22;36.70;27.50
23311;DHT22;11828;51.508;18.118;2023-09-19T15:58:51;36.60;27.40
23311;DHT22;11828;51.508;18.118;2023-09-19T16:01:19;36.50;27.40
23311;DHT22;11828;51.508;18.118;2023-09-19T16:03:50;36.40;27.50
23311;DHT22;11828;51.508;18.118;2023-09-19T16:06:30;36.40;27.60
23311;DHT22;11828;51.508;18.118;2023-09-19T16:08:58;36.30;27.60
23311;DHT22;11828;51.508;18.118;2023-09-19T16:11:26;36.30;27.70
23311;DHT22;11828;51.508;18.118;2023-09-19T16:13:53;36.20;27.70
23311;DHT22;11828;51.508;18.118;2023-09-19T16:16:21;36.20;27.80
23311;DHT22;11828;51.508;18.118;2023-09-19T16:21:21;36.20;27.90
23311;DHT22;11828;51.508;18.118;2023-09-19T16:23:48;36.20;28.00